sensor_id;sensor_type;location;lat;lon;timestamp;P1;durP1;ratioP1;P2;durP2;ratioP2
72941;SDS011;69665;55.822;37.330;2024-03-29T00:00:41;16.35;;;6.50;;
72941;SDS011;69665;55.822;37.330;2024-03-29T00:03:07;17.63;;;6.05;;
72941;SDS011;69665;55.822;37.330;2024-03-29T00:05:33;17.48;;;6.55;;
72941;SDS011;69665;55.822;37.330;2024-03-29T00:07:59;18.60;;;7.32;;
72941;SDS011;69665;55.822;37.330;2024-03-29T00:10:25;18.58;;;7.13;;
72941;SDS011;69665;55.822;37.330;2024-03-29T00:12:50;18.88;;;7.85;;
72941;SDS011;69665;55.822;37.330;2024-03-29T00:15:16;16.30;;;6.40;;
72941;SDS011;69665;55.822;37.330;2024-03-29T00:17:42;15.52;;;7.00;;
72941;SDS011;69665;55.822;37.330;2024-03-29T00:20:08;22.10;;;7.22;;
72941;SDS011;69665;55.822;37.330;2024-03-29T00:22:34;18.88;;;6.60;;
72941;SDS011;69665;55.822;37.330;2024-03-29T00:25:00;15.73;;;7.15;;
72941;SDS011;69665;55.822;37.330;2024-03-29T00:27:26;20.45;;;6.38;;
72941;SDS011;69665;55.822;37.330;2024-03-29T00:29:53;18.05;;;6.97;;
72941;SDS011;69665;55.822;37.330;2024-03-29T00:32:20;16.27;;;6.57;;
72941;SDS011;69665;55.822;37.330;2024-03-29T00:34:50;16.42;;;6.78;;
72941;SDS011;69665;55.822;37.330;2024-03-29T00:37:17;15.73;;;7.18;;
72941;SDS011;69665;55.822;37.330;2024-03-29T00:39:44;14.10;;;6.93;;
72941;SDS011;69665;55.822;37.330;2024-03-29T00:42:10;21.13;;;8.07;;
72941;SDS011;69665;55.822;37.330;2024-03-29T00:44:38;18.58;;;6.78;;
72941;SDS011;69665;55.822;37.330;2024-03-29T00:47:04;26.77;;;8.05;;
72941;SDS011;69665;55.822;37.330;2024-03-29T00:49:30;15.15;;;6.30;;
72941;SDS011;69665;55.822;37.330;2024-03-29T00:51:56;16.85;;;7.05;;
72941;SDS011;69665;55.822;37.330;2024-03-29T00:54:22;17.80;;;7.13;;
72941;SDS011;69665;55.822;37.330;2024-03-29T00:56:51;15.85;;;6.55;;
72941;SDS011;69665;55.822;37.330;2024-03-29T00:59:17;16.75;;;7.10;;
72941;SDS011;69665;55.822;37.330;2024-03-29T01:01:44;17.88;;;7.10;;
72941;SDS011;69665;55.822;37.330;2024-03-29T01:04:10;20.00;;;7.03;;
72941;SDS011;69665;55.822;37.330;2024-03-29T01:06:36;22.00;;;7.05;;
72941;SDS011;69665;55.822;37.330;2024-03-29T01:09:02;17.30;;;6.38;;
72941;SDS011;69665;55.822;37.330;2024-03-29T01:11:29;16.50;;;6.93;;
72941;SDS011;69665;55.822;37.330;2024-03-29T01:13:55;12.43;;;6.40;;
72941;SDS011;69665;55.822;37.330;2024-03-29T01:16:21;19.15;;;7.07;;
72941;SDS011;69665;55.822;37.330;2024-03-29T01:18:46;17.63;;;6.28;;
72941;SDS011;69665;55.822;37.330;2024-03-29T01:21:12;16.17;;;6.93;;
72941;SDS011;69665;55.822;37.330;2024-03-29T01:23:38;16.48;;;7.18;;
72941;SDS011;69665;55.822;37.330;2024-03-29T01:26:05;18.92;;;7.30;;
72941;SDS011;69665;55.822;37.330;2024-03-29T01:28:31;15.27;;;6.75;;
72941;SDS011;69665;55.822;37.330;2024-03-29T01:30:57;18.38;;;6.93;;
72941;SDS011;69665;55.822;37.330;2024-03-29T01:33:26;16.40;;;6.60;;
72941;SDS011;69665;55.822;37.330;2024-03-29T01:35:52;16.40;;;6.93;;
72941;SDS011;69665;55.822;37.330;2024-03-29T01:38:18;21.98;;;7.00;;
72941;SDS011;69665;55.822;37.330;2024-03-29T01:40:45;17.13;;;7.63;;
72941;SDS011;69665;55.822;37.330;2024-03-29T01:43:11;20.33;;;7.88;;
72941;SDS011;69665;55.822;37.330;2024-03-29T01:45:38;18.38;;;6.68;;
72941;SDS011;69665;55.822;37.330;2024-03-29T01:48:11;17.65;;;7.80;;
72941;SDS011;69665;55.822;37.330;2024-03-29T01:50:37;17.63;;;7.45;;
72941;SDS011;69665;55.822;37.330;2024-03-29T01:53:04;17.30;;;6.70;;
72941;SDS011;69665;55.822;37.330;2024-03-29T01:55:33;17.73;;;7.15;;
72941;SDS011;69665;55.822;37.330;2024-03-29T01:57:59;18.45;;;6.85;;
72941;SDS011;69665;55.822;37.330;2024-03-29T02:00:25;15.93;;;6.43;;
72941;SDS011;69665;55.822;37.330;2024-03-29T02:02:52;17.25;;;6.30;;
72941;SDS011;69665;55.822;37.330;2024-03-29T02:05:18;18.52;;;7.82;;
72941;SDS011;69665;55.822;37.330;2024-03-29T02:07:45;18.10;;;6.63;;
72941;SDS011;69665;55.822;37.330;2024-03-29T02:10:14;16.60;;;7.88;;
72941;SDS011;69665;55.822;37.330;2024-03-29T02:12:41;17.58;;;7.15;;
72941;SDS011;69665;55.822;37.330;2024-03-29T02:15:07;17.75;;;7.80;;
72941;SDS011;69665;55.822;37.330;2024-03-29T02:17:33;15.98;;;6.97;;
72941;SDS011;69665;55.822;37.330;2024-03-29T02:19:59;19.67;;;7.88;;
72941;SDS011;69665;55.822;37.330;2024-03-29T02:22:25;18.98;;;8.77;;
72941;SDS011;69665;55.822;37.330;2024-03-29T02:24:53;17.35;;;7.72;;
72941;SDS011;69665;55.822;37.330;2024-03-29T02:27:21;19.27;;;7.15;;
72941;SDS011;69665;55.822;37.330;2024-03-29T02:29:48;19.98;;;7.90;;
72941;SDS011;69665;55.822;37.330;2024-03-29T02:32:13;18.67;;;7.57;;
72941;SDS011;69665;55.822;37.330;2024-03-29T02:34:39;21.08;;;8.68;;
72941;SDS011;69665;55.822;37.330;2024-03-29T02:37:05;16.45;;;7.63;;
72941;SDS011;69665;55.822;37.330;2024-03-29T02:39:31;19.02;;;7.00;;
72941;SDS011;69665;55.822;37.330;2024-03-29T02:41:57;20.30;;;8.27;;
72941;SDS011;69665;55.822;37.330;2024-03-29T02:44:23;22.30;;;7.18;;
72941;SDS011;69665;55.822;37.330;2024-03-29T02:46:48;16.77;;;8.15;;
72941;SDS011;69665;55.822;37.330;2024-03-29T02:49:14;20.33;;;7.65;;
72941;SDS011;69665;55.822;37.330;2024-03-29T02:51:40;23.60;;;8.27;;
72941;SDS011;69665;55.822;37.330;2024-03-29T02:54:05;21.85;;;8.85;;
72941;SDS011;69665;55.822;37.330;2024-03-29T02:56:31;20.85;;;8.30;;
72941;SDS011;69665;55.822;37.330;2024-03-29T02:58:56;23.63;;;8.07;;
72941;SDS011;69665;55.822;37.330;2024-03-29T03:01:22;22.58;;;8.60;;
72941;SDS011;69665;55.822;37.330;2024-03-29T03:03:48;25.02;;;9.68;;
72941;SDS011;69665;55.822;37.330;2024-03-29T03:06:13;18.77;;;7.97;;
72941;SDS011;69665;55.822;37.330;2024-03-29T03:08:39;22.38;;;9.07;;
72941;SDS011;69665;55.822;37.330;2024-03-29T03:11:23;22.00;;;8.32;;
72941;SDS011;69665;55.822;37.330;2024-03-29T03:13:48;20.55;;;8.73;;
72941;SDS011;69665;55.822;37.330;2024-03-29T03:16:14;20.85;;;8.80;;
72941;SDS011;69665;55.822;37.330;2024-03-29T03:18:40;21.45;;;8.00;;
72941;SDS011;69665;55.822;37.330;2024-03-29T03:21:05;23.30;;;9.43;;
72941;SDS011;69665;55.822;37.330;2024-03-29T03:23:31;25.60;;;8.82;;
72941;SDS011;69665;55.822;37.330;2024-03-29T03:25:57;20.30;;;9.60;;
72941;SDS011;69665;55.822;37.330;2024-03-29T03:28:24;19.08;;;8.93;;
72941;SDS011;69665;55.822;37.330;2024-03-29T03:30:51;24.35;;;9.30;;
72941;SDS011;69665;55.822;37.330;2024-03-29T03:33:20;22.73;;;8.55;;
72941;SDS011;69665;55.822;37.330;2024-03-29T03:35:46;20.38;;;9.15;;
72941;SDS011;69665;55.822;37.330;2024-03-29T03:38:12;23.90;;;9.52;;
72941;SDS011;69665;55.822;37.330;2024-03-29T03:40:38;22.83;;;9.13;;
72941;SDS011;69665;55.822;37.330;2024-03-29T03:43:05;25.17;;;10.15;;
72941;SDS011;69665;55.822;37.330;2024-03-29T03:48:05;24.02;;;9.82;;
72941;SDS011;69665;55.822;37.330;2024-03-29T03:50:32;20.85;;;9.75;;
72941;SDS011;69665;55.822;37.330;2024-03-29T03:52:57;18.80;;;8.63;;
72941;SDS011;69665;55.822;37.330;2024-03-29T03:55:23;21.75;;;8.60;;
72941;SDS011;69665;55.822;37.330;2024-03-29T03:57:49;21.77;;;9.40;;
72941;SDS011;69665;55.822;37.330;2024-03-29T04:00:15;21.80;;;9.35;;
72941;SDS011;69665;55.822;37.330;2024-03-29T04:02:46;19.02;;;9.80;;
72941;SDS011;69665;55.822;37.330;2024-03-29T04:05:14;22.13;;;9.32;;
72941;SDS011;69665;55.822;37.330;2024-03-29T04:07:39;23.25;;;10.18;;
72941;SDS011;69665;55.822;37.330;2024-03-29T04:10:05;24.58;;;10.25;;
72941;SDS011;69665;55.822;37.330;2024-03-29T04:12:31;20.10;;;8.80;;
72941;SDS011;69665;55.822;37.330;2024-03-29T04:14:57;22.25;;;9.30;;
72941;SDS011;69665;55.822;37.330;2024-03-29T04:17:23;25.23;;;10.27;;
72941;SDS011;69665;55.822;37.330;2024-03-29T04:19:49;18.65;;;8.50;;
72941;SDS011;69665;55.822;37.330;2024-03-29T04:22:14;20.45;;;9.25;;
72941;SDS011;69665;55.822;37.330;2024-03-29T04:24:40;22.67;;;10.05;;
72941;SDS011;69665;55.822;37.330;2024-03-29T04:27:06;19.33;;;8.60;;
72941;SDS011;69665;55.822;37.330;2024-03-29T04:29:31;18.05;;;8.98;;
72941;SDS011;69665;55.822;37.330;2024-03-29T04:31:57;21.00;;;9.93;;
72941;SDS011;69665;55.822;37.330;2024-03-29T04:34:23;22.48;;;10.10;;
72941;SDS011;69665;55.822;37.330;2024-03-29T04:36:48;21.00;;;8.95;;
72941;SDS011;69665;55.822;37.330;2024-03-29T04:39:14;26.65;;;9.57;;
72941;SDS011;69665;55.822;37.330;2024-03-29T04:41:39;20.90;;;9.27;;
72941;SDS011;69665;55.822;37.330;2024-03-29T04:44:05;20.08;;;9.70;;
72941;SDS011;69665;55.822;37.330;2024-03-29T04:46:33;19.45;;;8.65;;
72941;SDS011;69665;55.822;37.330;2024-03-29T04:48:58;19.42;;;8.48;;
72941;SDS011;69665;55.822;37.330;2024-03-29T04:51:24;24.23;;;9.95;;
72941;SDS011;69665;55.822;37.330;2024-03-29T04:53:50;22.40;;;8.90;;
72941;SDS011;69665;55.822;37.330;2024-03-29T04:56:16;22.08;;;9.00;;
72941;SDS011;69665;55.822;37.330;2024-03-29T04:58:42;20.75;;;8.65;;
72941;SDS011;69665;55.822;37.330;2024-03-29T05:01:08;20.60;;;9.68;;
72941;SDS011;69665;55.822;37.330;2024-03-29T05:03:34;20.33;;;10.52;;
72941;SDS011;69665;55.822;37.330;2024-03-29T05:06:00;19.92;;;9.02;;
72941;SDS011;69665;55.822;37.330;2024-03-29T05:08:26;20.33;;;8.35;;
72941;SDS011;69665;55.822;37.330;2024-03-29T05:10:52;19.48;;;8.88;;
72941;SDS011;69665;55.822;37.330;2024-03-29T05:13:18;19.70;;;7.97;;
72941;SDS011;69665;55.822;37.330;2024-03-29T05:15:46;16.40;;;8.23;;
72941;SDS011;69665;55.822;37.330;2024-03-29T05:18:14;21.60;;;8.57;;
72941;SDS011;69665;55.822;37.330;2024-03-29T05:20:40;19.92;;;7.85;;
72941;SDS011;69665;55.822;37.330;2024-03-29T05:23:12;18.67;;;8.43;;
72941;SDS011;69665;55.822;37.330;2024-03-29T05:25:39;18.17;;;8.27;;
72941;SDS011;69665;55.822;37.330;2024-03-29T05:28:06;20.33;;;7.72;;
72941;SDS011;69665;55.822;37.330;2024-03-29T05:30:33;21.52;;;8.15;;
72941;SDS011;69665;55.822;37.330;2024-03-29T05:32:59;20.25;;;8.75;;
72941;SDS011;69665;55.822;37.330;2024-03-29T05:35:25;19.20;;;9.15;;
72941;SDS011;69665;55.822;37.330;2024-03-29T05:37:51;21.33;;;8.55;;
72941;SDS011;69665;55.822;37.330;2024-03-29T05:40:19;16.60;;;6.82;;
72941;SDS011;69665;55.822;37.330;2024-03-29T05:42:44;16.67;;;7.63;;
72941;SDS011;69665;55.822;37.330;2024-03-29T05:45:22;17.70;;;7.75;;
72941;SDS011;69665;55.822;37.330;2024-03-29T05:47:55;14.77;;;7.75;;
72941;SDS011;69665;55.822;37.330;2024-03-29T05:50:28;18.20;;;7.57;;
72941;SDS011;69665;55.822;37.330;2024-03-29T05:52:54;16.88;;;8.13;;
72941;SDS011;69665;55.822;37.330;2024-03-29T05:55:20;14.80;;;7.75;;
72941;SDS011;69665;55.822;37.330;2024-03-29T05:57:46;15.60;;;7.90;;
72941;SDS011;69665;55.822;37.330;2024-03-29T06:00:12;17.17;;;8.52;;
72941;SDS011;69665;55.822;37.330;2024-03-29T06:02:42;16.17;;;7.53;;
72941;SDS011;69665;55.822;37.330;2024-03-29T06:05:10;17.75;;;9.07;;
72941;SDS011;69665;55.822;37.330;2024-03-29T06:07:37;17.52;;;7.57;;
72941;SDS011;69665;55.822;37.330;2024-03-29T06:10:03;16.30;;;7.63;;
72941;SDS011;69665;55.822;37.330;2024-03-29T06:12:32;21.88;;;8.15;;
72941;SDS011;69665;55.822;37.330;2024-03-29T06:14:57;19.35;;;7.65;;
72941;SDS011;69665;55.822;37.330;2024-03-29T06:17:42;18.45;;;9.00;;
72941;SDS011;69665;55.822;37.330;2024-03-29T06:20:07;24.17;;;9.57;;
72941;SDS011;69665;55.822;37.330;2024-03-29T06:22:33;18.63;;;7.65;;
72941;SDS011;69665;55.822;37.330;2024-03-29T06:24:59;19.85;;;7.70;;
72941;SDS011;69665;55.822;37.330;2024-03-29T06:27:31;13.27;;;6.50;;
72941;SDS011;69665;55.822;37.330;2024-03-29T06:29:57;20.83;;;7.50;;
72941;SDS011;69665;55.822;37.330;2024-03-29T06:32:23;18.70;;;7.22;;
72941;SDS011;69665;55.822;37.330;2024-03-29T06:34:49;16.00;;;6.80;;
72941;SDS011;69665;55.822;37.330;2024-03-29T06:37:15;15.55;;;7.20;;
72941;SDS011;69665;55.822;37.330;2024-03-29T06:39:40;17.98;;;7.68;;
72941;SDS011;69665;55.822;37.330;2024-03-29T06:42:07;16.98;;;6.95;;
72941;SDS011;69665;55.822;37.330;2024-03-29T06:44:34;19.38;;;7.72;;
72941;SDS011;69665;55.822;37.330;2024-03-29T06:47:00;16.88;;;6.55;;
72941;SDS011;69665;55.822;37.330;2024-03-29T06:49:25;16.88;;;6.88;;
72941;SDS011;69665;55.822;37.330;2024-03-29T06:51:51;15.60;;;6.70;;
72941;SDS011;69665;55.822;37.330;2024-03-29T06:54:19;17.40;;;7.10;;
72941;SDS011;69665;55.822;37.330;2024-03-29T06:56:50;18.98;;;7.03;;
72941;SDS011;69665;55.822;37.330;2024-03-29T06:59:15;16.67;;;6.85;;
72941;SDS011;69665;55.822;37.330;2024-03-29T07:01:41;22.10;;;7.07;;
72941;SDS011;69665;55.822;37.330;2024-03-29T07:04:07;21.08;;;6.15;;
72941;SDS011;69665;55.822;37.330;2024-03-29T07:06:32;20.30;;;8.35;;
72941;SDS011;69665;55.822;37.330;2024-03-29T07:08:58;18.05;;;6.82;;
72941;SDS011;69665;55.822;37.330;2024-03-29T07:11:24;17.98;;;8.43;;
72941;SDS011;69665;55.822;37.330;2024-03-29T07:13:49;16.52;;;6.60;;
72941;SDS011;69665;55.822;37.330;2024-03-29T07:16:15;18.02;;;7.82;;
72941;SDS011;69665;55.822;37.330;2024-03-29T07:18:41;14.57;;;6.55;;
72941;SDS011;69665;55.822;37.330;2024-03-29T07:21:06;16.55;;;5.70;;
72941;SDS011;69665;55.822;37.330;2024-03-29T07:23:32;13.50;;;7.00;;
72941;SDS011;69665;55.822;37.330;2024-03-29T07:26:01;15.70;;;6.50;;
72941;SDS011;69665;55.822;37.330;2024-03-29T07:28:29;14.95;;;6.30;;
72941;SDS011;69665;55.822;37.330;2024-03-29T07:30:55;17.42;;;7.40;;
72941;SDS011;69665;55.822;37.330;2024-03-29T07:33:22;14.48;;;7.20;;
72941;SDS011;69665;55.822;37.330;2024-03-29T07:35:54;13.57;;;6.18;;
72941;SDS011;69665;55.822;37.330;2024-03-29T07:38:20;16.38;;;7.78;;
72941;SDS011;69665;55.822;37.330;2024-03-29T07:40:48;13.10;;;6.47;;
72941;SDS011;69665;55.822;37.330;2024-03-29T07:43:14;15.95;;;6.85;;
72941;SDS011;69665;55.822;37.330;2024-03-29T07:45:40;15.48;;;6.75;;
72941;SDS011;69665;55.822;37.330;2024-03-29T07:48:13;16.33;;;6.85;;
72941;SDS011;69665;55.822;37.330;2024-03-29T07:50:41;19.52;;;6.40;;
72941;SDS011;69665;55.822;37.330;2024-03-29T07:53:07;16.40;;;6.28;;
72941;SDS011;69665;55.822;37.330;2024-03-29T07:55:39;15.38;;;6.32;;
72941;SDS011;69665;55.822;37.330;2024-03-29T07:58:08;20.48;;;7.20;;
72941;SDS011;69665;55.822;37.330;2024-03-29T08:00:35;13.75;;;5.68;;
72941;SDS011;69665;55.822;37.330;2024-03-29T08:03:04;20.27;;;7.05;;
72941;SDS011;69665;55.822;37.330;2024-03-29T08:05:30;20.45;;;7.53;;
72941;SDS011;69665;55.822;37.330;2024-03-29T08:07:55;16.77;;;6.22;;
72941;SDS011;69665;55.822;37.330;2024-03-29T08:10:21;15.77;;;7.35;;
72941;SDS011;69665;55.822;37.330;2024-03-29T08:12:47;15.77;;;6.82;;
72941;SDS011;69665;55.822;37.330;2024-03-29T08:15:16;16.13;;;6.97;;
72941;SDS011;69665;55.822;37.330;2024-03-29T08:17:43;17.52;;;7.25;;
72941;SDS011;69665;55.822;37.330;2024-03-29T08:20:10;15.00;;;6.85;;
72941;SDS011;69665;55.822;37.330;2024-03-29T08:22:36;16.70;;;8.15;;
72941;SDS011;69665;55.822;37.330;2024-03-29T08:25:02;14.75;;;7.07;;
72941;SDS011;69665;55.822;37.330;2024-03-29T08:27:30;21.40;;;7.53;;
72941;SDS011;69665;55.822;37.330;2024-03-29T08:29:55;16.13;;;7.88;;
72941;SDS011;69665;55.822;37.330;2024-03-29T08:32:21;16.30;;;7.32;;
72941;SDS011;69665;55.822;37.330;2024-03-29T08:34:47;24.10;;;7.45;;
72941;SDS011;69665;55.822;37.330;2024-03-29T08:37:13;19.98;;;7.25;;
72941;SDS011;69665;55.822;37.330;2024-03-29T08:39:39;15.25;;;6.97;;
72941;SDS011;69665;55.822;37.330;2024-03-29T08:42:05;16.55;;;7.43;;
72941;SDS011;69665;55.822;37.330;2024-03-29T08:44:34;14.40;;;7.68;;
72941;SDS011;69665;55.822;37.330;2024-03-29T08:47:01;12.77;;;5.75;;
72941;SDS011;69665;55.822;37.330;2024-03-29T08:49:28;18.38;;;6.97;;
72941;SDS011;69665;55.822;37.330;2024-03-29T08:51:58;20.17;;;8.05;;
72941;SDS011;69665;55.822;37.330;2024-03-29T08:54:25;15.88;;;8.80;;
72941;SDS011;69665;55.822;37.330;2024-03-29T08:56:53;17.00;;;7.22;;
72941;SDS011;69665;55.822;37.330;2024-03-29T08:59:18;14.13;;;7.18;;
72941;SDS011;69665;55.822;37.330;2024-03-29T09:01:45;14.68;;;6.88;;
72941;SDS011;69665;55.822;37.330;2024-03-29T09:04:14;14.95;;;7.22;;
72941;SDS011;69665;55.822;37.330;2024-03-29T09:06:41;17.38;;;7.97;;
72941;SDS011;69665;55.822;37.330;2024-03-29T09:09:08;16.10;;;7.68;;
72941;SDS011;69665;55.822;37.330;2024-03-29T09:11:35;22.75;;;7.53;;
72941;SDS011;69665;55.822;37.330;2024-03-29T09:14:01;15.15;;;6.45;;
72941;SDS011;69665;55.822;37.330;2024-03-29T09:16:27;13.45;;;7.63;;
72941;SDS011;69665;55.822;37.330;2024-03-29T09:18:55;14.10;;;7.07;;
72941;SDS011;69665;55.822;37.330;2024-03-29T09:21:21;16.27;;;7.38;;
72941;SDS011;69665;55.822;37.330;2024-03-29T09:23:47;13.38;;;7.55;;
72941;SDS011;69665;55.822;37.330;2024-03-29T09:26:17;14.45;;;5.97;;
72941;SDS011;69665;55.822;37.330;2024-03-29T09:28:43;17.40;;;8.05;;
72941;SDS011;69665;55.822;37.330;2024-03-29T09:31:09;15.75;;;8.13;;
72941;SDS011;69665;55.822;37.330;2024-03-29T09:33:34;17.33;;;8.43;;
72941;SDS011;69665;55.822;37.330;2024-03-29T09:36:00;19.65;;;9.23;;
72941;SDS011;69665;55.822;37.330;2024-03-29T09:38:26;17.60;;;7.50;;
72941;SDS011;69665;55.822;37.330;2024-03-29T09:41:03;14.20;;;7.15;;
72941;SDS011;69665;55.822;37.330;2024-03-29T09:43:37;14.57;;;7.53;;
72941;SDS011;69665;55.822;37.330;2024-03-29T09:46:04;15.60;;;7.60;;
72941;SDS011;69665;55.822;37.330;2024-03-29T09:48:31;14.63;;;7.55;;
72941;SDS011;69665;55.822;37.330;2024-03-29T09:51:03;13.75;;;7.15;;
72941;SDS011;69665;55.822;37.330;2024-03-29T09:53:35;16.95;;;8.60;;
72941;SDS011;69665;55.822;37.330;2024-03-29T09:56:03;14.38;;;7.78;;
72941;SDS011;69665;55.822;37.330;2024-03-29T09:58:30;20.00;;;8.43;;
72941;SDS011;69665;55.822;37.330;2024-03-29T10:00:57;18.67;;;8.10;;
72941;SDS011;69665;55.822;37.330;2024-03-29T10:03:26;19.25;;;6.97;;
72941;SDS011;69665;55.822;37.330;2024-03-29T10:05:57;13.13;;;7.25;;
72941;SDS011;69665;55.822;37.330;2024-03-29T10:08:26;16.52;;;6.72;;
72941;SDS011;69665;55.822;37.330;2024-03-29T10:10:59;19.23;;;7.65;;
72941;SDS011;69665;55.822;37.330;2024-03-29T10:13:25;19.23;;;7.82;;
72941;SDS011;69665;55.822;37.330;2024-03-29T10:15:52;15.88;;;7.65;;
72941;SDS011;69665;55.822;37.330;2024-03-29T10:18:24;16.60;;;7.28;;
72941;SDS011;69665;55.822;37.330;2024-03-29T10:21:02;14.55;;;7.47;;
72941;SDS011;69665;55.822;37.330;2024-03-29T10:23:30;15.10;;;8.25;;
72941;SDS011;69665;55.822;37.330;2024-03-29T10:25:57;18.38;;;8.98;;
72941;SDS011;69665;55.822;37.330;2024-03-29T10:28:27;15.70;;;8.05;;
72941;SDS011;69665;55.822;37.330;2024-03-29T10:31:04;16.48;;;8.82;;
72941;SDS011;69665;55.822;37.330;2024-03-29T10:33:33;18.42;;;7.82;;
72941;SDS011;69665;55.822;37.330;2024-03-29T10:36:00;16.98;;;8.80;;
72941;SDS011;69665;55.822;37.330;2024-03-29T10:38:33;17.90;;;8.30;;
72941;SDS011;69665;55.822;37.330;2024-03-29T10:41:02;14.35;;;7.75;;
72941;SDS011;69665;55.822;37.330;2024-03-29T10:43:32;15.27;;;7.28;;
72941;SDS011;69665;55.822;37.330;2024-03-29T10:46:02;14.52;;;8.27;;
72941;SDS011;69665;55.822;37.330;2024-03-29T10:48:29;16.35;;;7.63;;
72941;SDS011;69665;55.822;37.330;2024-03-29T10:50:58;17.27;;;8.18;;
72941;SDS011;69665;55.822;37.330;2024-03-29T10:53:25;28.20;;;9.20;;
72941;SDS011;69665;55.822;37.330;2024-03-29T10:55:56;18.77;;;8.93;;
72941;SDS011;69665;55.822;37.330;2024-03-29T10:58:25;17.45;;;8.65;;
72941;SDS011;69665;55.822;37.330;2024-03-29T11:00:56;19.95;;;8.88;;
72941;SDS011;69665;55.822;37.330;2024-03-29T11:03:35;22.02;;;8.65;;
72941;SDS011;69665;55.822;37.330;2024-03-29T11:06:03;22.38;;;8.50;;
72941;SDS011;69665;55.822;37.330;2024-03-29T11:08:34;16.38;;;9.00;;
72941;SDS011;69665;55.822;37.330;2024-03-29T11:11:06;19.80;;;9.23;;
72941;SDS011;69665;55.822;37.330;2024-03-29T11:16:23;20.40;;;9.55;;
72941;SDS011;69665;55.822;37.330;2024-03-29T11:18:49;20.02;;;9.23;;
72941;SDS011;69665;55.822;37.330;2024-03-29T11:21:17;19.25;;;9.25;;
72941;SDS011;69665;55.822;37.330;2024-03-29T11:23:48;16.90;;;8.43;;
72941;SDS011;69665;55.822;37.330;2024-03-29T11:26:18;17.10;;;8.93;;
72941;SDS011;69665;55.822;37.330;2024-03-29T11:28:51;18.40;;;9.27;;
72941;SDS011;69665;55.822;37.330;2024-03-29T11:31:21;26.63;;;10.73;;
72941;SDS011;69665;55.822;37.330;2024-03-29T11:33:49;18.77;;;9.77;;
72941;SDS011;69665;55.822;37.330;2024-03-29T11:36:17;18.67;;;9.00;;
72941;SDS011;69665;55.822;37.330;2024-03-29T11:38:46;21.20;;;9.23;;
72941;SDS011;69665;55.822;37.330;2024-03-29T11:41:18;21.35;;;9.20;;
72941;SDS011;69665;55.822;37.330;2024-03-29T11:43:55;20.92;;;9.55;;
72941;SDS011;69665;55.822;37.330;2024-03-29T11:46:22;20.98;;;9.93;;
72941;SDS011;69665;55.822;37.330;2024-03-29T11:48:49;21.27;;;10.23;;
72941;SDS011;69665;55.822;37.330;2024-03-29T11:51:18;18.00;;;8.48;;
72941;SDS011;69665;55.822;37.330;2024-03-29T11:53:51;20.55;;;9.57;;
72941;SDS011;69665;55.822;37.330;2024-03-29T11:56:18;22.40;;;11.38;;
72941;SDS011;69665;55.822;37.330;2024-03-29T11:58:45;20.73;;;9.15;;
72941;SDS011;69665;55.822;37.330;2024-03-29T12:01:11;18.13;;;9.43;;
72941;SDS011;69665;55.822;37.330;2024-03-29T12:03:40;23.00;;;10.35;;
72941;SDS011;69665;55.822;37.330;2024-03-29T12:06:07;23.20;;;9.65;;
72941;SDS011;69665;55.822;37.330;2024-03-29T12:08:34;19.52;;;8.93;;
72941;SDS011;69665;55.822;37.330;2024-03-29T12:11:02;17.83;;;9.35;;
72941;SDS011;69665;55.822;37.330;2024-03-29T12:13:28;17.35;;;9.77;;
72941;SDS011;69665;55.822;37.330;2024-03-29T12:15:55;18.45;;;9.35;;
72941;SDS011;69665;55.822;37.330;2024-03-29T12:18:21;15.52;;;9.15;;
72941;SDS011;69665;55.822;37.330;2024-03-29T12:20:48;20.05;;;9.63;;
72941;SDS011;69665;55.822;37.330;2024-03-29T12:23:18;17.88;;;9.85;;
72941;SDS011;69665;55.822;37.330;2024-03-29T12:25:46;20.08;;;8.38;;
72941;SDS011;69665;55.822;37.330;2024-03-29T12:28:13;19.20;;;9.57;;
72941;SDS011;69665;55.822;37.330;2024-03-29T12:30:43;18.67;;;9.77;;
72941;SDS011;69665;55.822;37.330;2024-03-29T12:33:14;16.88;;;9.10;;
72941;SDS011;69665;55.822;37.330;2024-03-29T12:35:42;20.02;;;9.55;;
72941;SDS011;69665;55.822;37.330;2024-03-29T12:38:13;19.35;;;9.70;;
72941;SDS011;69665;55.822;37.330;2024-03-29T12:40:43;18.60;;;9.30;;
72941;SDS011;69665;55.822;37.330;2024-03-29T12:43:10;19.67;;;9.23;;
72941;SDS011;69665;55.822;37.330;2024-03-29T12:45:40;15.43;;;9.10;;
72941;SDS011;69665;55.822;37.330;2024-03-29T12:50:36;17.25;;;8.60;;
72941;SDS011;69665;55.822;37.330;2024-03-29T12:53:05;15.50;;;8.77;;
72941;SDS011;69665;55.822;37.330;2024-03-29T12:55:32;18.88;;;8.88;;
72941;SDS011;69665;55.822;37.330;2024-03-29T12:58:02;17.80;;;8.63;;
72941;SDS011;69665;55.822;37.330;2024-03-29T13:00:32;19.25;;;9.90;;
72941;SDS011;69665;55.822;37.330;2024-03-29T13:02:58;18.85;;;9.52;;
72941;SDS011;69665;55.822;37.330;2024-03-29T13:05:24;27.75;;;9.13;;
72941;SDS011;69665;55.822;37.330;2024-03-29T13:07:50;16.35;;;8.93;;
72941;SDS011;69665;55.822;37.330;2024-03-29T13:10:16;20.88;;;9.40;;
72941;SDS011;69665;55.822;37.330;2024-03-29T13:12:48;24.52;;;8.48;;
72941;SDS011;69665;55.822;37.330;2024-03-29T13:17:51;17.88;;;8.30;;
72941;SDS011;69665;55.822;37.330;2024-03-29T13:20:19;16.33;;;8.68;;
72941;SDS011;69665;55.822;37.330;2024-03-29T13:22:45;17.38;;;8.23;;
72941;SDS011;69665;55.822;37.330;2024-03-29T13:25:13;18.73;;;8.80;;
72941;SDS011;69665;55.822;37.330;2024-03-29T13:27:42;19.33;;;8.85;;
72941;SDS011;69665;55.822;37.330;2024-03-29T13:30:09;16.60;;;9.93;;
72941;SDS011;69665;55.822;37.330;2024-03-29T13:32:40;18.23;;;7.88;;
72941;SDS011;69665;55.822;37.330;2024-03-29T13:35:06;23.38;;;9.38;;
72941;SDS011;69665;55.822;37.330;2024-03-29T13:37:41;28.83;;;10.05;;
72941;SDS011;69665;55.822;37.330;2024-03-29T13:40:09;16.55;;;8.00;;
72941;SDS011;69665;55.822;37.330;2024-03-29T13:42:36;21.33;;;9.30;;
72941;SDS011;69665;55.822;37.330;2024-03-29T13:45:03;23.63;;;8.48;;
72941;SDS011;69665;55.822;37.330;2024-03-29T13:47:34;18.05;;;9.43;;
72941;SDS011;69665;55.822;37.330;2024-03-29T13:50:00;20.98;;;10.02;;
72941;SDS011;69665;55.822;37.330;2024-03-29T13:52:26;21.17;;;9.57;;
72941;SDS011;69665;55.822;37.330;2024-03-29T13:54:55;19.73;;;9.25;;
72941;SDS011;69665;55.822;37.330;2024-03-29T13:57:21;19.27;;;9.18;;
72941;SDS011;69665;55.822;37.330;2024-03-29T13:59:47;22.10;;;9.63;;
72941;SDS011;69665;55.822;37.330;2024-03-29T14:02:14;20.55;;;9.95;;
72941;SDS011;69665;55.822;37.330;2024-03-29T14:04:42;20.58;;;8.55;;
72941;SDS011;69665;55.822;37.330;2024-03-29T14:07:09;21.35;;;9.27;;
72941;SDS011;69665;55.822;37.330;2024-03-29T14:09:39;19.48;;;10.05;;
72941;SDS011;69665;55.822;37.330;2024-03-29T14:12:08;17.50;;;9.52;;
72941;SDS011;69665;55.822;37.330;2024-03-29T14:14:35;23.73;;;9.80;;
72941;SDS011;69665;55.822;37.330;2024-03-29T14:17:01;19.98;;;9.07;;
72941;SDS011;69665;55.822;37.330;2024-03-29T14:19:33;20.25;;;9.63;;
72941;SDS011;69665;55.822;37.330;2024-03-29T14:24:25;19.10;;;9.32;;
72941;SDS011;69665;55.822;37.330;2024-03-29T14:26:52;19.05;;;9.55;;
72941;SDS011;69665;55.822;37.330;2024-03-29T14:29:18;21.02;;;9.40;;
72941;SDS011;69665;55.822;37.330;2024-03-29T14:31:47;21.40;;;10.20;;
72941;SDS011;69665;55.822;37.330;2024-03-29T14:34:13;23.77;;;9.85;;